Time;durP1;ratioP1;P1;durP2;ratioP2;P2;SDS_P1;SDS_P2;PMS_P1;PMS_P2;Temp;Humidity;BMP_temperature;BMP_pressure;BME280_temperature;BME280_humidity;BME280_pressure;Samples;Min_cycle;Max_cycle;Signal;HPM_P1;HPM_P2
2023/12/06 00:01:47;;;;;;;42.05;23.45;;;;;;;;;;5066737;28;20028;-64
2023/12/06 00:04:12;;;;;;;41.30;24.48;;;;;;;;;;5055074;28;20032;-64
2023/12/06 00:06:37;;;;;;;40.57;23.23;;;;;;;;;;5054002;28;20013;-64
2023/12/06 00:09:03;;;;;;;44.92;25.40;;;;;;;;;;5065283;28;20289;-64
2023/12/06 00:11:28;;;;;;;42.28;24.02;;;;;;;;;;5055750;28;20029;-65
2023/12/06 00:13:53;;;;;;;45.63;23.75;;;;;;;;;;5053971;28;20143;-64
2023/12/06 00:16:18;;;;;;;44.17;25.17;;;;;;;;;;5066630;28;20025;-64
2023/12/06 00:18:45;;;;;;;48.67;26.05;;;;;;;;;;5054060;28;20387;-65
2023/12/06 00:21:10;;;;;;;43.55;26.48;;;;;;;;;;5053508;28;20017;-65
2023/12/06 00:23:36;;;;;;;43.92;25.55;;;;;;;;;;5054065;28;20075;-64
2023/12/06 00:26:01;;;;;;;42.35;24.15;;;;;;;;;;5066731;28;20016;-64
2023/12/06 00:28:26;;;;;;;44.38;25.38;;;;;;;;;;5053887;28;20044;-64
2023/12/06 00:30:51;;;;;;;43.45;24.20;;;;;;;;;;5053862;28;20383;-63
2023/12/06 00:33:17;;;;;;;44.95;25.75;;;;;;;;;;5054248;28;20017;-64
2023/12/06 00:35:42;;;;;;;43.45;24.85;;;;;;;;;;5054200;28;20074;-64
2023/12/06 00:38:07;;;;;;;44.47;23.63;;;;;;;;;;5053665;28;20068;-64
2023/12/06 00:40:32;;;;;;;41.33;24.73;;;;;;;;;;5053223;28;20025;-64
2023/12/06 00:42:58;;;;;;;42.67;25.00;;;;;;;;;;5053174;28;20046;-64
2023/12/06 00:45:23;;;;;;;42.72;25.05;;;;;;;;;;5066048;28;20471;-64
2023/12/06 00:47:48;;;;;;;41.20;23.57;;;;;;;;;;5054453;28;20067;-64
2023/12/06 00:50:13;;;;;;;44.25;25.73;;;;;;;;;;5057561;28;20373;-64
2023/12/06 00:52:39;;;;;;;47.97;24.52;;;;;;;;;;5061808;28;20048;-63
2023/12/06 00:55:04;;;;;;;48.47;25.48;;;;;;;;;;5053236;28;20029;-63
2023/12/06 00:57:30;;;;;;;47.53;27.63;;;;;;;;;;5053725;28;20108;-64
2023/12/06 00:59:55;;;;;;;53.53;28.58;;;;;;;;;;5053385;28;20028;-63
2023/12/06 01:02:21;;;;;;;47.50;26.88;;;;;;;;;;5053421;28;20036;-63
2023/12/06 01:04:46;;;;;;;50.42;28.10;;;;;;;;;;5052731;28;20024;-64
2023/12/06 01:07:11;;;;;;;50.67;27.90;;;;;;;;;;5059422;28;20033;-64
2023/12/06 01:09:37;;;;;;;54.22;30.10;;;;;;;;;;5061144;28;20447;-64
2023/12/06 01:12:02;;;;;;;51.25;28.67;;;;;;;;;;5061604;28;20021;-64
2023/12/06 01:14:27;;;;;;;51.85;28.98;;;;;;;;;;5053090;28;20025;-65
2023/12/06 01:16:52;;;;;;;54.17;28.58;;;;;;;;;;5053003;28;20029;-65
2023/12/06 01:19:18;;;;;;;52.42;26.90;;;;;;;;;;5053654;28;20020;-64
2023/12/06 01:21:43;;;;;;;49.30;27.02;;;;;;;;;;5053015;28;20025;-65
2023/12/06 01:24:08;;;;;;;46.40;27.67;;;;;;;;;;5053129;28;20056;-63
2023/12/06 01:26:34;;;;;;;50.97;26.73;;;;;;;;;;5052936;28;20020;-64
2023/12/06 01:29:02;;;;;;;52.58;27.48;;;;;;;;;;5052977;28;20021;-65
2023/12/06 01:31:27;;;;;;;49.50;27.38;;;;;;;;;;5057274;28;20040;-65
2023/12/06 01:33:52;;;;;;;49.30;26.88;;;;;;;;;;5067606;28;20067;-64
2023/12/06 01:36:18;;;;;;;43.17;25.98;;;;;;;;;;5038332;28;20036;-65
2023/12/06 01:38:43;;;;;;;46.92;26.15;;;;;;;;;;5055068;28;20028;-63
2023/12/06 01:41:11;;;;;;;39.47;24.52;;;;;;;;;;5052869;28;20028;-65
2023/12/06 01:43:40;;;;;;;40.20;23.60;;;;;;;;;;5053516;28;20043;-66
2023/12/06 01:46:06;;;;;;;49.33;26.48;;;;;;;;;;5053104;28;20108;-64
2023/12/06 01:48:31;;;;;;;51.38;25.23;;;;;;;;;;5052807;28;20139;-66
2023/12/06 01:50:57;;;;;;;45.53;24.88;;;;;;;;;;5054974;28;20163;-63
2023/12/06 01:53:22;;;;;;;38.55;24.42;;;;;;;;;;5051121;28;20107;-64
2023/12/06 01:55:47;;;;;;;45.25;24.67;;;;;;;;;;5051738;28;20078;-63
2023/12/06 01:58:13;;;;;;;43.08;24.83;;;;;;;;;;5057199;28;20039;-64
2023/12/06 02:00:38;;;;;;;42.95;24.92;;;;;;;;;;5054956;28;20056;-65
2023/12/06 02:03:03;;;;;;;39.83;24.60;;;;;;;;;;5051978;28;20025;-65
2023/12/06 02:05:28;;;;;;;40.42;23.83;;;;;;;;;;5054462;28;20463;-64
2023/12/06 02:07:54;;;;;;;44.63;24.77;;;;;;;;;;5069259;28;20040;-66
2023/12/06 02:10:20;;;;;;;44.67;25.30;;;;;;;;;;5051221;28;20490;-65
2023/12/06 02:12:45;;;;;;;47.92;25.33;;;;;;;;;;5054263;28;20557;-65
2023/12/06 02:15:11;;;;;;;40.00;25.00;;;;;;;;;;5051382;28;20036;-63
2023/12/06 02:17:36;;;;;;;42.40;24.83;;;;;;;;;;5051840;28;20031;-64
2023/12/06 02:20:02;;;;;;;43.10;24.73;;;;;;;;;;5051561;28;20104;-63
2023/12/06 02:22:28;;;;;;;41.85;24.98;;;;;;;;;;5052396;28;20108;-65
2023/12/06 02:24:55;;;;;;;50.90;25.25;;;;;;;;;;5052145;28;20440;-64
2023/12/06 02:27:21;;;;;;;38.35;23.60;;;;;;;;;;5052028;28;20039;-65
2023/12/06 02:29:46;;;;;;;39.13;24.98;;;;;;;;;;5052116;28;20025;-65
2023/12/06 02:32:12;;;;;;;38.72;23.83;;;;;;;;;;5052179;28;20029;-64
2023/12/06 02:34:37;;;;;;;43.38;25.75;;;;;;;;;;5057715;28;20020;-64
2023/12/06 02:37:03;;;;;;;40.90;25.63;;;;;;;;;;5056965;28;20037;-64
2023/12/06 02:39:31;;;;;;;43.65;25.83;;;;;;;;;;5058137;28;20116;-64
2023/12/06 02:41:56;;;;;;;39.67;24.05;;;;;;;;;;5056256;28;20025;-64
2023/12/06 02:44:21;;;;;;;39.50;24.05;;;;;;;;;;5051934;28;20041;-65
2023/12/06 02:46:46;;;;;;;42.83;26.08;;;;;;;;;;5051014;28;20078;-64
2023/12/06 02:49:12;;;;;;;40.08;24.23;;;;;;;;;;5051390;28;20057;-65
2023/12/06 02:51:37;;;;;;;44.70;24.55;;;;;;;;;;5033795;28;20025;-64
2023/12/06 02:54:02;;;;;;;35.33;23.38;;;;;;;;;;5051990;28;20425;-64
2023/12/06 02:56:27;;;;;;;35.22;23.10;;;;;;;;;;5052000;28;20491;-65
2023/12/06 02:58:53;;;;;;;43.00;25.15;;;;;;;;;;5051812;28;20103;-65
2023/12/06 03:01:18;;;;;;;45.53;24.23;;;;;;;;;;5053383;28;20115;-65
2023/12/06 03:03:43;;;;;;;40.17;24.97;;;;;;;;;;5060209;28;20848;-65
2023/12/06 03:06:08;;;;;;;40.85;24.83;;;;;;;;;;5051070;28;20809;-65
2023/12/06 03:08:33;;;;;;;39.58;22.48;;;;;;;;;;5051287;28;20368;-65
2023/12/06 03:10:59;;;;;;;40.22;23.75;;;;;;;;;;5051115;28;20418;-65
2023/12/06 03:13:24;;;;;;;40.60;23.50;;;;;;;;;;5063478;28;20067;-64
2023/12/06 03:15:49;;;;;;;37.90;24.53;;;;;;;;;;5050982;28;20765;-65
2023/12/06 03:18:14;;;;;;;40.67;24.48;;;;;;;;;;5050978;28;20275;-64
2023/12/06 03:20:39;;;;;;;37.50;23.80;;;;;;;;;;5051255;28;20029;-65
2023/12/06 03:23:05;;;;;;;42.00;23.77;;;;;;;;;;5051457;28;20387;-65
2023/12/06 03:25:30;;;;;;;41.00;24.42;;;;;;;;;;5051172;28;20033;-65
2023/12/06 03:27:55;;;;;;;40.23;24.80;;;;;;;;;;5051283;28;20028;-65
2023/12/06 03:30:20;;;;;;;37.22;23.33;;;;;;;;;;5050872;28;20280;-65
2023/12/06 03:32:46;;;;;;;38.55;25.02;;;;;;;;;;5050945;28;20379;-66
2023/12/06 03:35:11;;;;;;;38.88;23.85;;;;;;;;;;5051500;28;20035;-66
2023/12/06 03:37:36;;;;;;;40.13;23.33;;;;;;;;;;5050569;28;20399;-66
2023/12/06 03:40:01;;;;;;;38.20;24.42;;;;;;;;;;5063102;28;20602;-66
2023/12/06 03:42:27;;;;;;;40.58;24.02;;;;;;;;;;5051600;28;20387;-65
2023/12/06 03:44:52;;;;;;;35.70;23.33;;;;;;;;;;5051167;28;20029;-65
2023/12/06 03:47:17;;;;;;;38.97;23.02;;;;;;;;;;5050467;28;20028;-65
2023/12/06 03:49:42;;;;;;;38.67;23.58;;;;;;;;;;5050736;28;20028;-66
2023/12/06 03:52:09;;;;;;;36.63;23.30;;;;;;;;;;5050453;28;20032;-65
2023/12/06 03:54:34;;;;;;;35.08;22.38;;;;;;;;;;5062710;28;20104;-66
2023/12/06 03:56:59;;;;;;;39.33;22.70;;;;;;;;;;5055172;28;20150;-65
2023/12/06 03:59:25;;;;;;;34.95;22.58;;;;;;;;;;5059266;28;20013;-65
2023/12/06 04:01:50;;;;;;;46.28;22.77;;;;;;;;;;5050556;28;20104;-65
2023/12/06 04:04:15;;;;;;;40.80;24.80;;;;;;;;;;5048698;28;20039;-65
2023/12/06 04:06:40;;;;;;;37.08;22.52;;;;;;;;;;5050569;28;20628;-65
2023/12/06 04:09:06;;;;;;;37.67;21.83;;;;;;;;;;5050769;28;20052;-65
2023/12/06 04:11:32;;;;;;;35.08;21.67;;;;;;;;;;5044330;28;20271;-66
2023/12/06 04:13:57;;;;;;;38.03;22.20;;;;;;;;;;5049853;28;20452;-66
2023/12/06 04:16:22;;;;;;;33.67;21.77;;;;;;;;;;5051594;28;20394;-65
2023/12/06 04:18:48;;;;;;;35.60;20.63;;;;;;;;;;5053867;28;20430;-65
2023/12/06 04:21:13;;;;;;;36.80;21.08;;;;;;;;;;5054118;28;20047;-66
2023/12/06 04:23:38;;;;;;;35.50;22.65;;;;;;;;;;5053822;28;20139;-66
2023/12/06 04:26:04;;;;;;;33.55;20.98;;;;;;;;;;5054589;28;20059;-66
2023/12/06 04:28:29;;;;;;;37.00;21.55;;;;;;;;;;5054067;28;20021;-65
2023/12/06 04:30:54;;;;;;;42.55;23.13;;;;;;;;;;5056398;28;20082;-65
2023/12/06 04:33:20;;;;;;;35.90;22.25;;;;;;;;;;5062547;28;20025;-66
2023/12/06 04:35:45;;;;;;;35.42;22.83;;;;;;;;;;5053798;28;20032;-66
2023/12/06 04:38:10;;;;;;;32.72;22.08;;;;;;;;;;5053599;28;20108;-65
2023/12/06 04:40:35;;;;;;;38.40;23.10;;;;;;;;;;5053608;28;20009;-65
2023/12/06 04:43:01;;;;;;;37.10;21.20;;;;;;;;;;5036001;28;20036;-66
2023/12/06 04:45:26;;;;;;;32.88;21.48;;;;;;;;;;5053518;28;20020;-64
2023/12/06 04:47:51;;;;;;;33.25;20.98;;;;;;;;;;5052926;28;20029;-64
2023/12/06 04:50:16;;;;;;;36.03;20.23;;;;;;;;;;5053137;28;20028;-65
2023/12/06 04:52:42;;;;;;;35.13;20.02;;;;;;;;;;5060544;28;20040;-64
2023/12/06 04:55:07;;;;;;;35.00;20.00;;;;;;;;;;5053271;28;20021;-66
2023/12/06 04:57:32;;;;;;;32.67;21.13;;;;;;;;;;5053372;28;20043;-64
2023/12/06 04:59:58;;;;;;;33.42;19.70;;;;;;;;;;5053418;28;20032;-66
2023/12/06 05:02:23;;;;;;;31.85;19.77;;;;;;;;;;5053466;28;20478;-64
2023/12/06 05:04:48;;;;;;;39.50;21.90;;;;;;;;;;5053298;28;20080;-65
2023/12/06 05:07:13;;;;;;;36.78;20.45;;;;;;;;;;5053802;28;20020;-66
2023/12/06 05:09:39;;;;;;;34.00;20.17;;;;;;;;;;5053240;28;20032;-64
2023/12/06 05:12:04;;;;;;;37.55;20.58;;;;;;;;;;5053301;28;20067;-65
2023/12/06 05:14:29;;;;;;;36.28;20.50;;;;;;;;;;5052850;28;20024;-65
2023/12/06 05:16:54;;;;;;;33.58;20.15;;;;;;;;;;5052997;28;20025;-65
2023/12/06 05:19:20;;;;;;;31.75;19.58;;;;;;;;;;5064374;28;20052;-64
2023/12/06 05:21:45;;;;;;;31.13;20.17;;;;;;;;;;5053255;28;20052;-66
2023/12/06 05:24:10;;;;;;;32.35;20.80;;;;;;;;;;5053209;28;20028;-65
2023/12/06 05:26:35;;;;;;;35.92;19.33;;;;;;;;;;5052956;28;20021;-64
2023/12/06 05:29:01;;;;;;;33.30;19.58;;;;;;;;;;5052873;28;20115;-64
2023/12/06 05:31:26;;;;;;;30.48;19.92;;;;;;;;;;5052963;28;20186;-66
2023/12/06 05:33:51;;;;;;;30.23;19.65;;;;;;;;;;5052666;28;20031;-64
2023/12/06 05:36:17;;;;;;;29.52;18.45;;;;;;;;;;5061477;28;20012;-64
2023/12/06 05:38:42;;;;;;;32.55;18.48;;;;;;;;;;5056077;28;20023;-65
2023/12/06 05:41:08;;;;;;;33.30;19.83;;;;;;;;;;5053054;28;20039;-65
2023/12/06 05:43:33;;;;;;;35.15;19.80;;;;;;;;;;5052648;28;20078;-65
2023/12/06 05:45:58;;;;;;;34.53;19.55;;;;;;;;;;5053454;28;20452;-65
2023/12/06 05:48:23;;;;;;;27.67;19.38;;;;;;;;;;5052448;28;20494;-65
2023/12/06 05:50:49;;;;;;;36.97;19.95;;;;;;;;;;5052466;28;20029;-66
2023/12/06 05:53:14;;;;;;;31.10;18.42;;;;;;;;;;5052415;28;20028;-66
2023/12/06 05:55:40;;;;;;;34.35;19.15;;;;;;;;;;5052706;28;20032;-64
2023/12/06 05:58:05;;;;;;;36.33;19.60;;;;;;;;;;5053928;28;20124;-66
2023/12/06 06:00:30;;;;;;;31.15;20.30;;;;;;;;;;5064604;28;20032;-65
2023/12/06 06:02:58;;;;;;;33.22;19.95;;;;;;;;;;5052402;28;20391;-65
2023/12/06 06:05:23;;;;;;;32.95;20.40;;;;;;;;;;5052198;28;20032;-65
2023/12/06 06:07:48;;;;;;;32.95;20.02;;;;;;;;;;5058071;28;20056;-65
2023/12/06 06:10:13;;;;;;;30.17;19.60;;;;;;;;;;5052691;28;20078;-65
2023/12/06 06:12:39;;;;;;;34.50;21.38;;;;;;;;;;5055753;28;20275;-65
2023/12/06 06:15:05;;;;;;;31.75;19.98;;;;;;;;;;5052088;28;20029;-65
2023/12/06 06:17:30;;;;;;;33.67;21.33;;;;;;;;;;5057374;28;20036;-65
2023/12/06 06:19:55;;;;;;;33.97;20.25;;;;;;;;;;5052595;28;20040;-65
2023/12/06 06:22:20;;;;;;;35.73;21.90;;;;;;;;;;5051968;28;20033;-65
2023/12/06 06:24:46;;;;;;;33.67;22.60;;;;;;;;;;5061253;28;20275;-65
2023/12/06 06:27:11;;;;;;;41.00;24.23;;;;;;;;;;5062891;28;20274;-65
2023/12/06 06:29:37;;;;;;;40.90;23.08;;;;;;;;;;5052126;28;20295;-65
2023/12/06 06:32:03;;;;;;;37.58;22.80;;;;;;;;;;5051854;28;20687;-64
2023/12/06 06:34:28;;;;;;;33.67;22.90;;;;;;;;;;5051887;28;20106;-63
2023/12/06 06:36:54;;;;;;;38.53;22.77;;;;;;;;;;5052122;28;20052;-63
2023/12/06 06:39:20;;;;;;;36.15;22.50;;;;;;;;;;5057004;28;20017;-64
2023/12/06 06:41:46;;;;;;;38.95;23.65;;;;;;;;;;5058200;28;20040;-65
2023/12/06 06:44:11;;;;;;;40.72;22.65;;;;;;;;;;5052835;28;20031;-65
2023/12/06 06:46:36;;;;;;;41.30;22.50;;;;;;;;;;5051722;28;20029;-64
2023/12/06 06:49:02;;;;;;;39.42;24.63;;;;;;;;;;5051411;28;20060;-65
2023/12/06 06:51:37;;;;;;;42.55;22.52;;;;;;;;;;5051778;28;20036;-64
2023/12/06 06:54:03;;;;;;;35.03;21.75;;;;;;;;;;5051478;28;20104;-65
2023/12/06 06:56:28;;;;;;;36.97;21.85;;;;;;;;;;5059180;28;20059;-65
2023/12/06 06:58:54;;;;;;;36.85;22.52;;;;;;;;;;5051546;28;20025;-65
2023/12/06 07:01:19;;;;;;;33.90;22.10;;;;;;;;;;5051559;28;20013;-65
2023/12/06 07:03:44;;;;;;;36.55;22.58;;;;;;;;;;5039923;28;20021;-65
2023/12/06 07:06:09;;;;;;;36.08;22.02;;;;;;;;;;5028842;28;20087;-65
2023/12/06 07:08:35;;;;;;;33.63;21.08;;;;;;;;;;5032389;28;20800;-65
2023/12/06 07:11:00;;;;;;;31.20;20.42;;;;;;;;;;5023247;28;20029;-65
2023/12/06 07:13:26;;;;;;;35.17;20.83;;;;;;;;;;5023414;28;20077;-65
2023/12/06 07:15:51;;;;;;;33.25;20.30;;;;;;;;;;5022893;28;20082;-65
2023/12/06 07:18:16;;;;;;;29.33;19.23;;;;;;;;;;5029968;28;20046;-65
2023/12/06 07:20:42;;;;;;;32.65;20.83;;;;;;;;;;5026740;28;21084;-65
2023/12/06 07:23:08;;;;;;;34.97;19.70;;;;;;;;;;5030107;28;20021;-66
2023/12/06 07:25:33;;;;;;;34.75;20.95;;;;;;;;;;5032592;28;20028;-65
2023/12/06 07:27:58;;;;;;;39.00;22.75;;;;;;;;;;5030174;28;20115;-65
2023/12/06 07:30:23;;;;;;;30.25;20.77;;;;;;;;;;5024803;28;20029;-65
2023/12/06 07:32:49;;;;;;;38.92;20.85;;;;;;;;;;5040997;28;20028;-65
2023/12/06 07:35:14;;;;;;;38.50;22.00;;;;;;;;;;5031317;28;20025;-65
2023/12/06 07:37:39;;;;;;;36.08;21.65;;;;;;;;;;5025417;28;20053;-65
2023/12/06 07:40:07;;;;;;;34.92;21.33;;;;;;;;;;5023062;28;20090;-65
2023/12/06 07:42:34;;;;;;;35.38;21.90;;;;;;;;;;5024086;28;20021;-65
2023/12/06 07:44:59;;;;;;;35.75;21.50;;;;;;;;;;5024535;28;20032;-65
2023/12/06 07:47:25;;;;;;;38.23;20.57;;;;;;;;;;5036512;28;20477;-65
2023/12/06 07:49:50;;;;;;;35.97;22.03;;;;;;;;;;5033942;28;20645;-66
2023/12/06 07:52:15;;;;;;;36.80;21.53;;;;;;;;;;5033928;28;21372;-65
2023/12/06 07:54:40;;;;;;;37.30;22.33;;;;;;;;;;5044124;28;20390;-64
2023/12/06 07:57:05;;;;;;;34.25;21.90;;;;;;;;;;5031745;28;20463;-66
2023/12/06 07:59:31;;;;;;;34.70;21.88;;;;;;;;;;5046252;28;20090;-66
2023/12/06 08:01:56;;;;;;;36.75;21.42;;;;;;;;;;5047888;28;20028;-65
2023/12/06 08:04:21;;;;;;;40.58;22.17;;;;;;;;;;5033424;28;20072;-66
2023/12/06 08:06:46;;;;;;;34.08;21.25;;;;;;;;;;5035038;28;20131;-65
2023/12/06 08:09:12;;;;;;;37.53;21.10;;;;;;;;;;5031683;28;20032;-66
2023/12/06 08:11:41;;;;;;;34.67;20.88;;;;;;;;;;5029617;28;20318;-66
2023/12/06 08:14:06;;;;;;;45.58;23.17;;;;;;;;;;5020126;28;20027;-66
2023/12/06 08:16:31;;;;;;;33.60;20.85;;;;;;;;;;5035548;28;20025;-66
2023/12/06 08:18:57;;;;;;;35.50;21.65;;;;;;;;;;5039340;28;20071;-65
2023/12/06 08:21:22;;;;;;;32.72;20.15;;;;;;;;;;5024022;28;20044;-66
2023/12/06 08:23:47;;;;;;;37.20;21.60;;;;;;;;;;5018527;28;20063;-65
2023/12/06 08:26:13;;;;;;;33.40;21.27;;;;;;;;;;5024069;28;20592;-65
2023/12/06 08:28:39;;;;;;;38.15;20.83;;;;;;;;;;5018856;28;20032;-65
2023/12/06 08:31:04;;;;;;;36.95;22.50;;;;;;;;;;5016554;28;20800;-65
2023/12/06 08:33:30;;;;;;;36.65;20.58;;;;;;;;;;5028423;28;20139;-65
2023/12/06 08:35:55;;;;;;;33.63;21.33;;;;;;;;;;5024064;28;20032;-65
2023/12/06 08:38:20;;;;;;;37.65;20.70;;;;;;;;;;5026664;28;20043;-65
2023/12/06 08:40:46;;;;;;;34.42;20.45;;;;;;;;;;5015944;28;20032;-65
2023/12/06 08:43:11;;;;;;;33.03;20.52;;;;;;;;;;5023726;28;20021;-72
2023/12/06 08:45:36;;;;;;;32.30;20.08;;;;;;;;;;5020291;28;20123;-64
2023/12/06 08:48:01;;;;;;;36.00;21.02;;;;;;;;;;5031138;28;20923;-63
2023/12/06 08:50:27;;;;;;;34.97;20.77;;;;;;;;;;5036500;28;20918;-62
2023/12/06 08:52:52;;;;;;;35.15;21.88;;;;;;;;;;5033129;28;20044;-69
2023/12/06 08:55:18;;;;;;;33.92;20.45;;;;;;;;;;5047477;28;20067;-62
2023/12/06 08:57:43;;;;;;;33.83;20.75;;;;;;;;;;5022466;28;20082;-64
2023/12/06 09:00:11;;;;;;;45.60;20.98;;;;;;;;;;5036279;28;20132;-63
2023/12/06 09:02:37;;;;;;;37.50;22.33;;;;;;;;;;5053774;28;20033;-63
2023/12/06 09:05:02;;;;;;;33.45;20.48;;;;;;;;;;5045522;28;20048;-63
2023/12/06 09:07:27;;;;;;;32.55;20.52;;;;;;;;;;5057874;28;20114;-66
2023/12/06 09:09:53;;;;;;;35.25;20.55;;;;;;;;;;5053125;28;20025;-69
2023/12/06 09:12:18;;;;;;;36.47;20.20;;;;;;;;;;5036375;28;20086;-69
2023/12/06 09:14:43;;;;;;;33.80;21.80;;;;;;;;;;5051337;28;20286;-72
2023/12/06 09:17:08;;;;;;;40.65;22.58;;;;;;;;;;5046140;28;20287;-71
2023/12/06 09:19:34;;;;;;;38.70;22.98;;;;;;;;;;5052294;28;20021;-72
2023/12/06 09:21:59;;;;;;;30.98;20.08;;;;;;;;;;5063032;28;20107;-72
2023/12/06 09:24:24;;;;;;;28.23;20.00;;;;;;;;;;5050924;28;20039;-72
2023/12/06 09:26:50;;;;;;;36.83;22.53;;;;;;;;;;5060454;28;20267;-72
2023/12/06 09:29:15;;;;;;;29.67;19.40;;;;;;;;;;5053023;28;20310;-73
2023/12/06 09:31:40;;;;;;;35.65;21.45;;;;;;;;;;5057899;28;20548;-72
2023/12/06 09:34:06;;;;;;;36.38;20.70;;;;;;;;;;5054129;28;20040;-72
2023/12/06 09:36:32;;;;;;;33.88;21.42;;;;;;;;;;5053275;28;20124;-72
2023/12/06 09:38:58;;;;;;;37.30;22.65;;;;;;;;;;5051932;28;20511;-71
2023/12/06 09:41:28;;;;;;;32.55;20.60;;;;;;;;;;5065665;28;20047;-72
2023/12/06 09:43:53;;;;;;;38.80;21.98;;;;;;;;;;5055372;28;20033;-72
2023/12/06 09:46:19;;;;;;;38.20;22.98;;;;;;;;;;5056000;28;20639;-73
2023/12/06 09:48:46;;;;;;;37.85;22.20;;;;;;;;;;5066359;28;20020;-72
2023/12/06 09:51:11;;;;;;;37.78;21.83;;;;;;;;;;5068272;28;20062;-72
2023/12/06 09:53:38;;;;;;;40.75;22.58;;;;;;;;;;5055532;28;20025;-72
2023/12/06 09:56:03;;;;;;;41.25;23.83;;;;;;;;;;5061650;28;20108;-72
2023/12/06 09:58:28;;;;;;;39.60;23.48;;;;;;;;;;5059785;28;20108;-72
2023/12/06 10:00:54;;;;;;;35.53;23.30;;;;;;;;;;5055764;28;20446;-72
2023/12/06 10:03:23;;;;;;;38.22;22.00;;;;;;;;;;5057232;28;20123;-72
2023/12/06 10:05:57;;;;;;;37.00;21.73;;;;;;;;;;5054973;28;20033;-73
2023/12/06 10:08:23;;;;;;;34.83;21.80;;;;;;;;;;5054906;28;20033;-73
2023/12/06 10:10:59;;;;;;;39.05;22.67;;;;;;;;;;5052875;28;20411;-73
2023/12/06 10:13:31;;;;;;;37.65;22.25;;;;;;;;;;5055203;28;20033;-72
2023/12/06 10:15:56;;;;;;;41.30;22.75;;;;;;;;;;5049978;28;20052;-72
2023/12/06 10:18:21;;;;;;;38.20;22.60;;;;;;;;;;5061153;28;20072;-73
2023/12/06 10:20:46;;;;;;;36.63;22.95;;;;;;;;;;5051658;28;20355;-73
2023/12/06 10:23:12;;;;;;;38.63;22.50;;;;;;;;;;5052975;28;20032;-73
2023/12/06 10:25:38;;;;;;;38.00;23.80;;;;;;;;;;5051727;28;20029;-73
2023/12/06 10:28:03;;;;;;;37.42;21.80;;;;;;;;;;5053706;28;20421;-73
2023/12/06 10:30:28;;;;;;;33.75;21.23;;;;;;;;;;5048197;28;20360;-73
2023/12/06 10:32:54;;;;;;;36.03;21.67;;;;;;;;;;5053951;28;20025;-73
2023/12/06 10:35:20;;;;;;;30.63;20.52;;;;;;;;;;5044539;28;20024;-72
2023/12/06 10:37:46;;;;;;;36.38;22.10;;;;;;;;;;5050621;28;20021;-73
2023/12/06 10:40:12;;;;;;;28.30;18.42;;;;;;;;;;5059959;28;20021;-73
2023/12/06 10:42:40;;;;;;;30.77;18.90;;;;;;;;;;5053435;28;20039;-73
2023/12/06 10:45:06;;;;;;;30.63;18.27;;;;;;;;;;5044796;28;20024;-74
2023/12/06 10:47:31;;;;;;;29.73;18.40;;;;;;;;;;5053103;28;20013;-73
2023/12/06 10:49:57;;;;;;;26.40;16.45;;;;;;;;;;5050697;28;20021;-75
2023/12/06 10:52:23;;;;;;;25.67;16.10;;;;;;;;;;5055487;28;20104;-75
2023/12/06 10:54:49;;;;;;;21.80;14.82;;;;;;;;;;5055053;28;20131;-75
2023/12/06 10:57:14;;;;;;;21.95;14.07;;;;;;;;;;5045953;28;20039;-72
2023/12/06 10:59:41;;;;;;;20.58;14.13;;;;;;;;;;5048301;28;20029;-75
2023/12/06 11:02:08;;;;;;;19.90;12.15;;;;;;;;;;5050099;28;20126;-75
2023/12/06 11:04:36;;;;;;;20.85;13.57;;;;;;;;;;5051571;28;20033;-75
2023/12/06 11:07:09;;;;;;;17.35;11.45;;;;;;;;;;5060573;28;20095;-76
2023/12/06 11:09:44;;;;;;;19.52;11.20;;;;;;;;;;5055972;28;20537;-75
2023/12/06 11:12:28;;;;;;;18.52;11.63;;;;;;;;;;5054955;28;20034;-75
2023/12/06 11:14:56;;;;;;;19.63;11.23;;;;;;;;;;5049949;28;20024;-76
2023/12/06 11:17:27;;;;;;;16.20;9.73;;;;;;;;;;5058480;28;20040;-74
2023/12/06 11:19:52;;;;;;;14.90;9.52;;;;;;;;;;5048279;28;20040;-75
2023/12/06 11:22:22;;;;;;;13.05;8.25;;;;;;;;;;5053553;28;20016;-72
2023/12/06 11:24:48;;;;;;;12.95;8.27;;;;;;;;;;5048053;28;20525;-77
2023/12/06 11:27:13;;;;;;;11.57;7.18;;;;;;;;;;5029059;28;20082;-76
2023/12/06 11:29:38;;;;;;;13.65;7.80;;;;;;;;;;5034995;28;20029;-76
2023/12/06 11:32:09;;;;;;;12.95;8.07;;;;;;;;;;5024529;28;20977;-76
2023/12/06 11:34:36;;;;;;;11.68;7.63;;;;;;;;;;5021058;28;20369;-76
2023/12/06 11:37:03;;;;;;;12.35;7.45;;;;;;;;;;5035963;28;20168;-76
2023/12/06 11:39:28;;;;;;;11.23;7.35;;;;;;;;;;5019489;28;20017;-76
2023/12/06 11:41:54;;;;;;;13.35;7.13;;;;;;;;;;5025140;28;20793;-76
2023/12/06 11:44:19;;;;;;;11.65;6.30;;;;;;;;;;5032117;28;20071;-77
2023/12/06 11:46:52;;;;;;;9.95;5.75;;;;;;;;;;5030886;28;20039;-77
2023/12/06 11:49:20;;;;;;;9.23;5.97;;;;;;;;;;5042008;28;20129;-76
2023/12/06 11:51:50;;;;;;;9.43;6.22;;;;;;;;;;5026945;28;20051;-77
2023/12/06 11:54:16;;;;;;;9.93;6.45;;;;;;;;;;5042410;28;20055;-75
2023/12/06 11:56:41;;;;;;;11.65;7.05;;;;;;;;;;5021549;28;20809;-76
2023/12/06 11:59:06;;;;;;;9.75;5.80;;;;;;;;;;5042299;28;20029;-76
2023/12/06 12:01:32;;;;;;;14.20;6.15;;;;;;;;;;5030314;28;20025;-76
2023/12/06 12:03:58;;;;;;;8.27;5.40;;;;;;;;;;5026797;28;20038;-77
2023/12/06 12:06:27;;;;;;;8.15;5.65;;;;;;;;;;5021805;28;20029;-76
2023/12/06 12:08:52;;;;;;;11.05;6.05;;;;;;;;;;5031846;28;20148;-76
2023/12/06 12:11:17;;;;;;;10.35;6.43;;;;;;;;;;5023871;28;20033;-76
2023/12/06 12:13:43;;;;;;;12.45;6.18;;;;;;;;;;5031866;28;20133;-75
2023/12/06 12:16:08;;;;;;;15.23;6.80;;;;;;;;;;5023504;28;20864;-75
2023/12/06 12:18:34;;;;;;;12.85;6.88;;;;;;;;;;5018852;28;20025;-74
2023/12/06 12:21:05;;;;;;;11.68;6.95;;;;;;;;;;5039417;28;20616;-73
2023/12/06 12:23:30;;;;;;;12.05;7.22;;;;;;;;;;5045859;28;20039;-73
2023/12/06 12:25:56;;;;;;;12.80;8.57;;;;;;;;;;5053396;28;20017;-73
2023/12/06 12:28:22;;;;;;;12.10;7.90;;;;;;;;;;5057772;28;20036;-73
2023/12/06 12:31:03;;;;;;;13.55;7.43;;;;;;;;;;5053006;28;20468;-73
2023/12/06 12:33:29;;;;;;;13.90;7.65;;;;;;;;;;5059440;28;20133;-73
2023/12/06 12:35:55;;;;;;;10.65;6.80;;;;;;;;;;5059520;28;20111;-75
2023/12/06 12:38:20;;;;;;;12.32;7.60;;;;;;;;;;5056544;28;20020;-75
2023/12/06 12:40:46;;;;;;;9.93;6.60;;;;;;;;;;5051886;28;20555;-72
2023/12/06 12:43:11;;;;;;;10.75;7.30;;;;;;;;;;5055218;28;20025;-74
2023/12/06 12:45:37;;;;;;;12.75;7.45;;;;;;;;;;5051931;28;20057;-74
2023/12/06 12:48:03;;;;;;;11.52;6.60;;;;;;;;;;5053005;28;20059;-73
2023/12/06 12:50:28;;;;;;;12.80;6.22;;;;;;;;;;5053754;28;20456;-73
2023/12/06 12:52:54;;;;;;;8.40;5.70;;;;;;;;;;5058061;28;20051;-73
2023/12/06 12:55:19;;;;;;;12.43;5.63;;;;;;;;;;5034349;28;20020;-74
2023/12/06 12:57:44;;;;;;;8.07;5.03;;;;;;;;;;5056666;28;20036;-73
2023/12/06 13:00:20;;;;;;;12.13;4.90;;;;;;;;;;5053574;28;20028;-74
2023/12/06 13:02:46;;;;;;;6.60;4.22;;;;;;;;;;5060336;28;20035;-73
2023/12/06 13:05:12;;;;;;;7.45;4.40;;;;;;;;;;5052598;28;20029;-72
2023/12/06 13:07:37;;;;;;;8.60;4.53;;;;;;;;;;5054369;28;20047;-72
2023/12/06 13:10:07;;;;;;;7.28;4.13;;;;;;;;;;5052789;28;20090;-72
2023/12/06 13:12:32;;;;;;;9.70;3.92;;;;;;;;;;5053316;28;20507;-75
2023/12/06 13:14:57;;;;;;;7.00;3.80;;;;;;;;;;5052643;28;20028;-69
2023/12/06 13:17:23;;;;;;;8.00;4.63;;;;;;;;;;5052487;28;20419;-78
2023/12/06 13:19:48;;;;;;;6.97;3.88;;;;;;;;;;5076902;28;20897;-68
2023/12/06 13:22:13;;;;;;;7.25;4.00;;;;;;;;;;5052572;28;20128;-68
2023/12/06 13:24:38;;;;;;;8.15;4.53;;;;;;;;;;5053014;28;20024;-72
2023/12/06 13:27:04;;;;;;;7.70;4.17;;;;;;;;;;5058276;28;20024;-72
2023/12/06 13:29:29;;;;;;;7.18;3.45;;;;;;;;;;5062486;28;20382;-73
2023/12/06 13:31:55;;;;;;;8.07;4.63;;;;;;;;;;5063094;28;20029;-73
2023/12/06 13:34:25;;;;;;;9.43;4.15;;;;;;;;;;5059351;28;20037;-73
2023/12/06 13:36:50;;;;;;;8.32;4.20;;;;;;;;;;5051498;28;20033;-73
2023/12/06 13:39:16;;;;;;;6.67;4.00;;;;;;;;;;5059148;28;20095;-79
2023/12/06 13:41:41;;;;;;;8.13;4.43;;;;;;;;;;5052094;28;20303;-78
2023/12/06 13:44:06;;;;;;;9.43;4.80;;;;;;;;;;5058636;28;20059;-72
2023/12/06 13:46:32;;;;;;;7.33;4.33;;;;;;;;;;5051833;28;20033;-77
2023/12/06 13:48:57;;;;;;;6.25;3.72;;;;;;;;;;5056777;28;20298;-81
2023/12/06 13:51:22;;;;;;;8.10;4.70;;;;;;;;;;5052385;28;20035;-68
2023/12/06 13:53:48;;;;;;;8.30;3.67;;;;;;;;;;5055289;28;20032;-68
2023/12/06 13:56:13;;;;;;;9.00;5.10;;;;;;;;;;5052322;28;20642;-81
2023/12/06 13:58:38;;;;;;;12.77;4.53;;;;;;;;;;5061150;28;20135;-77
2023/12/06 14:01:03;;;;;;;9.30;4.70;;;;;;;;;;5051999;28;20494;-77
2023/12/06 14:03:28;;;;;;;9.50;5.13;;;;;;;;;;5052954;28;20268;-77
2023/12/06 14:05:54;;;;;;;8.98;5.20;;;;;;;;;;5051958;28;20412;-76
2023/12/06 14:08:19;;;;;;;10.93;4.80;;;;;;;;;;5069136;28;20028;-77
2023/12/06 14:10:44;;;;;;;8.30;4.75;;;;;;;;;;5071017;28;20033;-77
2023/12/06 14:13:09;;;;;;;7.70;4.68;;;;;;;;;;5055080;28;20503;-77